Авиационная погода в Ставрополе

Регион: 
Погода METAR: 
URMT 170300Z 11002MPS CAVOK 14/08 Q1004 R07/010070 NOSIG RMK QFE713
Время наблюдения
2021-05-17T03:00:00Z
Температура C
14.0
Точка росы
8.0
Направление ветра
110
Скорость ветра (узлы)
4
Метео видимость
6.21
Явления погоды
Условия полета
VFR
Аэропорт подробнее: